Time;durP1;ratioP1;P1;durP2;ratioP2;P2;SDS_P1;SDS_P2;PMS_P1;PMS_P2;Temp;Humidity;BMP_temperature;BMP_pressure;BME280_temperature;BME280_humidity;BME280_pressure;Samples;Min_cycle;Max_cycle;Signal;HPM_P1;HPM_P2
2023/12/25 00:00:33;;;;;;;6.25;3.90;;;;;;;-146.58;100.00;69501.63;5037004;28;20065;-66
2023/12/25 00:02:58;;;;;;;13.30;4.20;;;;;;;-146.58;100.00;69501.63;5033491;28;20025;-66
2023/12/25 00:05:23;;;;;;;7.55;4.20;;;;;;;-146.58;100.00;69501.63;5030935;28;20042;-66
2023/12/25 00:07:49;;;;;;;11.98;5.05;;;;;;;-146.58;100.00;69501.63;5033141;28;20021;-66
2023/12/25 00:10:14;;;;;;;10.57;5.85;;;;;;;-146.58;100.00;69501.63;5031467;28;20041;-66
2023/12/25 00:12:39;;;;;;;9.27;4.60;;;;;;;-146.58;100.00;69501.63;5032407;28;20489;-67
2023/12/25 00:15:05;;;;;;;14.00;5.18;;;;;;;-146.58;100.00;69501.63;5031589;28;20041;-67
2023/12/25 00:17:31;;;;;;;11.10;4.55;;;;;;;-146.58;100.00;69501.63;5032531;28;20535;-67
2023/12/25 00:19:56;;;;;;;11.00;3.40;;;;;;;-146.58;100.00;69501.63;5030781;28;20033;-67
2023/12/25 00:22:22;;;;;;;10.07;4.75;;;;;;;-146.58;100.00;69501.63;5031790;28;20064;-67
2023/12/25 00:24:47;;;;;;;13.10;4.93;;;;;;;-146.58;100.00;69501.63;5031302;28;20045;-66
2023/12/25 00:27:12;;;;;;;10.45;3.00;;;;;;;-146.58;100.00;69501.63;5032134;28;20029;-67
2023/12/25 00:29:38;;;;;;;8.30;4.03;;;;;;;-146.58;100.00;69501.63;5030801;28;20052;-65
2023/12/25 00:32:04;;;;;;;8.15;4.18;;;;;;;-146.58;100.00;69501.63;5039085;28;20032;-66
2023/12/25 00:34:29;;;;;;;9.88;4.40;;;;;;;-146.58;100.00;69501.63;5050373;28;20416;-66
2023/12/25 00:36:55;;;;;;;13.13;4.25;;;;;;;-146.58;100.00;69501.63;5052315;28;20396;-66
2023/12/25 00:39:20;;;;;;;9.15;3.95;;;;;;;-146.58;100.00;69501.63;5050431;28;20041;-67
2023/12/25 00:41:46;;;;;;;10.57;3.88;;;;;;;-146.58;100.00;69501.63;5052045;28;20013;-66
2023/12/25 00:44:11;;;;;;;11.63;3.63;;;;;;;-146.58;100.00;69501.63;5051035;28;20033;-66
2023/12/25 00:46:36;;;;;;;13.38;4.93;;;;;;;-146.58;100.00;69501.63;5046831;28;20041;-63
2023/12/25 00:49:02;;;;;;;11.55;4.90;;;;;;;-146.58;100.00;69501.63;5030403;28;20018;-66
2023/12/25 00:51:27;;;;;;;13.05;4.72;;;;;;;-146.58;100.00;69501.63;5032230;28;20461;-66
2023/12/25 00:53:53;;;;;;;11.40;3.20;;;;;;;-146.58;100.00;69501.63;5030654;28;20460;-66
2023/12/25 00:56:18;;;;;;;8.82;4.10;;;;;;;-146.58;100.00;69501.63;5031644;28;20033;-65
2023/12/25 00:58:44;;;;;;;18.95;3.35;;;;;;;-146.58;100.00;69501.63;5031775;28;20492;-67
2023/12/25 01:01:10;;;;;;;18.35;4.50;;;;;;;-146.58;100.00;69501.63;5030115;28;20037;-66
2023/12/25 01:03:35;;;;;;;9.52;3.72;;;;;;;-146.58;100.00;69501.63;5050452;28;20025;-65
2023/12/25 01:06:01;;;;;;;17.80;3.95;;;;;;;-146.58;100.00;69501.63;5049971;28;20052;-64
2023/12/25 01:08:26;;;;;;;10.07;4.40;;;;;;;-146.58;100.00;69501.63;5051448;28;20039;-64
2023/12/25 01:10:51;;;;;;;11.02;4.05;;;;;;;-146.58;100.00;69501.63;5039819;28;20158;-64
2023/12/25 01:13:17;;;;;;;10.25;4.78;;;;;;;-146.58;100.00;69501.63;5031663;28;20026;-64
2023/12/25 01:15:43;;;;;;;13.20;5.05;;;;;;;-146.58;100.00;69501.63;5030150;28;20041;-64
2023/12/25 01:18:08;;;;;;;15.25;4.75;;;;;;;-146.58;100.00;69501.63;5049029;28;20024;-65
2023/12/25 01:20:34;;;;;;;7.20;3.08;;;;;;;-146.58;100.00;69501.63;5049210;28;20045;-65
2023/12/25 01:22:59;;;;;;;6.45;2.85;;;;;;;-146.58;100.00;69501.63;5051788;28;20487;-65
2023/12/25 01:25:24;;;;;;;6.78;3.42;;;;;;;-146.58;100.00;69501.63;5049817;28;20103;-67
2023/12/25 01:27:50;;;;;;;12.32;3.38;;;;;;;-146.58;100.00;69501.63;5051281;28;20028;-66
2023/12/25 01:30:15;;;;;;;10.38;3.60;;;;;;;-146.58;100.00;69501.63;5046764;28;20519;-66
2023/12/25 01:32:41;;;;;;;7.72;3.30;;;;;;;-146.58;100.00;69501.63;5030935;28;20032;-66
2023/12/25 01:35:06;;;;;;;7.25;2.13;;;;;;;-146.58;100.00;69501.63;5029123;28;20497;-66
2023/12/25 01:37:32;;;;;;;8.32;2.78;;;;;;;-146.58;100.00;69501.63;5031024;28;20053;-66
2023/12/25 01:39:57;;;;;;;8.68;3.13;;;;;;;-146.58;100.00;69501.63;5029708;28;20038;-66
2023/12/25 01:42:22;;;;;;;9.15;4.13;;;;;;;-146.58;100.00;69501.63;5029442;28;20112;-66
2023/12/25 01:44:48;;;;;;;5.28;2.38;;;;;;;-146.58;100.00;69501.63;5030559;28;20064;-65
2023/12/25 01:47:15;;;;;;;4.63;2.70;;;;;;;-146.58;100.00;69501.63;5051412;28;20036;-66
2023/12/25 01:49:41;;;;;;;6.90;3.92;;;;;;;-146.58;100.00;69501.63;5041132;28;20501;-66
2023/12/25 01:52:07;;;;;;;6.18;2.90;;;;;;;-146.58;100.00;69501.63;5030826;28;20103;-66
2023/12/25 01:54:33;;;;;;;3.65;2.13;;;;;;;-146.58;100.00;69501.63;5041860;28;20411;-66
2023/12/25 01:56:58;;;;;;;8.65;3.60;;;;;;;-146.58;100.00;69501.63;5050665;28;20029;-65
2023/12/25 01:59:28;;;;;;;9.63;4.35;;;;;;;-146.58;100.00;69501.63;5049076;28;20036;-66
2023/12/25 02:01:53;;;;;;;8.05;2.97;;;;;;;-146.58;100.00;69501.63;5051222;28;20021;-66
2023/12/25 02:04:19;;;;;;;5.38;2.50;;;;;;;-146.58;100.00;69501.63;5049012;28;20540;-65
2023/12/25 02:06:46;;;;;;;12.30;4.10;;;;;;;-146.58;100.00;69501.63;5050616;28;20021;-65
2023/12/25 02:09:12;;;;;;;8.82;3.53;;;;;;;-146.58;100.00;69501.63;5045032;28;20614;-66
2023/12/25 02:11:40;;;;;;;3.85;3.22;;;;;;;-146.58;100.00;69501.63;5030217;28;20105;-65
2023/12/25 02:14:06;;;;;;;8.27;2.75;;;;;;;-146.58;100.00;69501.63;5029833;28;20030;-65
2023/12/25 02:16:32;;;;;;;11.38;3.28;;;;;;;-146.58;100.00;69501.63;5030697;28;20542;-66
2023/12/25 02:18:58;;;;;;;6.30;2.65;;;;;;;-146.58;100.00;69501.63;5028856;28;20025;-65
2023/12/25 02:21:24;;;;;;;9.35;3.22;;;;;;;-146.58;100.00;69501.63;5030480;28;20044;-66
2023/12/25 02:23:58;;;;;;;5.75;3.20;;;;;;;-146.58;100.00;69501.63;5035593;28;20486;-66
2023/12/25 02:26:23;;;;;;;5.00;2.83;;;;;;;-146.58;100.00;69501.63;5050188;28;20017;-65
2023/12/25 02:28:48;;;;;;;9.15;3.42;;;;;;;-146.58;100.00;69501.63;5049243;28;20059;-66
2023/12/25 02:31:14;;;;;;;7.07;2.35;;;;;;;-146.58;100.00;69501.63;5050581;28;20014;-65
2023/12/25 02:33:39;;;;;;;9.85;4.13;;;;;;;-146.58;100.00;69501.63;5047158;28;20396;-63
2023/12/25 02:36:05;;;;;;;6.20;3.45;;;;;;;-146.58;100.00;69501.63;5030982;28;20029;-66
2023/12/25 02:38:30;;;;;;;8.98;3.38;;;;;;;-146.58;100.00;69501.63;5034509;28;20484;-66
2023/12/25 02:40:56;;;;;;;8.35;3.53;;;;;;;-146.58;100.00;69501.63;5028735;28;20052;-66
2023/12/25 02:43:21;;;;;;;12.38;4.72;;;;;;;-146.58;100.00;69501.63;5030771;28;20476;-66
2023/12/25 02:45:46;;;;;;;5.78;3.22;;;;;;;-146.58;100.00;69501.63;5035162;28;20041;-66
2023/12/25 02:48:12;;;;;;;12.25;3.05;;;;;;;-146.58;100.00;69501.63;5034074;28;20025;-65
2023/12/25 02:50:37;;;;;;;4.00;2.97;;;;;;;-146.58;100.00;69501.63;5032879;28;20029;-65
2023/12/25 02:53:03;;;;;;;10.88;2.85;;;;;;;-146.58;100.00;69501.63;5034357;28;20373;-65
2023/12/25 02:55:29;;;;;;;8.65;3.25;;;;;;;-146.58;100.00;69501.63;5032565;28;20080;-65
2023/12/25 02:57:54;;;;;;;8.32;2.97;;;;;;;-146.58;100.00;69501.63;5034181;28;20478;-64
2023/12/25 03:00:20;;;;;;;18.02;5.45;;;;;;;-146.58;100.00;69501.63;5032144;28;20041;-64
2023/12/25 03:02:45;;;;;;;8.07;2.88;;;;;;;-146.58;100.00;69501.63;5033813;28;20033;-65
2023/12/25 03:05:11;;;;;;;7.55;3.95;;;;;;;-146.58;100.00;69501.63;5033733;28;20042;-65
2023/12/25 03:07:36;;;;;;;12.18;5.20;;;;;;;-146.58;100.00;69501.63;5033977;28;20029;-67
2023/12/25 03:10:02;;;;;;;7.00;4.75;;;;;;;-146.58;100.00;69501.63;5032448;28;20064;-67
2023/12/25 03:12:28;;;;;;;11.32;4.45;;;;;;;-146.58;100.00;69501.63;5033909;28;20380;-67
2023/12/25 03:14:54;;;;;;;10.20;4.03;;;;;;;-146.58;100.00;69501.63;5032467;28;20048;-67
2023/12/25 03:17:20;;;;;;;17.20;4.03;;;;;;;-146.58;100.00;69501.63;5033617;28;20033;-67
2023/12/25 03:19:45;;;;;;;13.02;6.90;;;;;;;-146.58;100.00;69501.63;5032315;28;20052;-65
2023/12/25 03:22:11;;;;;;;13.88;4.65;;;;;;;-146.58;100.00;69501.63;5033713;28;20022;-65
2023/12/25 03:24:36;;;;;;;18.77;4.35;;;;;;;-146.58;100.00;69501.63;5031760;28;20525;-66
2023/12/25 03:27:02;;;;;;;17.20;3.95;;;;;;;-146.58;100.00;69501.63;5034041;28;20026;-66
2023/12/25 03:29:27;;;;;;;12.88;3.58;;;;;;;-146.58;100.00;69501.63;5032070;28;20523;-66
2023/12/25 03:31:53;;;;;;;11.02;2.85;;;;;;;-146.58;100.00;69501.63;5046083;28;20090;-67
2023/12/25 03:34:19;;;;;;;3.05;2.10;;;;;;;-146.58;100.00;69501.63;5043842;28;20519;-67
2023/12/25 03:36:45;;;;;;;5.07;2.47;;;;;;;-146.58;100.00;69501.63;5033683;28;20046;-67
2023/12/25 03:39:10;;;;;;;6.40;3.28;;;;;;;-146.58;100.00;69501.63;5031387;28;20030;-67
2023/12/25 03:41:36;;;;;;;7.43;3.42;;;;;;;-146.58;100.00;69501.63;5033233;28;20384;-66
2023/12/25 03:44:02;;;;;;;13.45;5.85;;;;;;;-146.58;100.00;69501.63;5032205;28;20095;-67
2023/12/25 03:46:27;;;;;;;6.47;3.70;;;;;;;-146.58;100.00;69501.63;5044204;28;20029;-66
2023/12/25 03:48:52;;;;;;;5.65;3.35;;;;;;;-146.58;100.00;69501.63;5051615;28;20629;-66
2023/12/25 03:51:18;;;;;;;4.85;3.10;;;;;;;-146.58;100.00;69501.63;5053104;28;20024;-66
2023/12/25 03:53:43;;;;;;;4.53;2.60;;;;;;;-146.58;100.00;69501.63;5046230;28;20033;-66
2023/12/25 03:56:08;;;;;;;5.32;2.17;;;;;;;-146.58;100.00;69501.63;5031880;28;20017;-66
2023/12/25 03:58:35;;;;;;;6.55;1.92;;;;;;;-146.58;100.00;69501.63;5032976;28;20036;-66
2023/12/25 04:01:00;;;;;;;4.38;1.60;;;;;;;-146.58;100.00;69501.63;5039175;28;20135;-66
2023/12/25 04:03:26;;;;;;;2.25;2.15;;;;;;;-146.58;100.00;69501.63;5049063;28;20165;-66
2023/12/25 04:05:51;;;;;;;10.50;2.90;;;;;;;-146.58;100.00;69501.63;5031666;28;20504;-66
2023/12/25 04:08:17;;;;;;;7.80;2.08;;;;;;;-146.58;100.00;69501.63;5032866;28;20025;-67
2023/12/25 04:10:42;;;;;;;6.22;2.53;;;;;;;-146.58;100.00;69501.63;5030896;28;20562;-66
2023/12/25 04:13:07;;;;;;;7.57;2.35;;;;;;;-146.58;100.00;69501.63;5033133;28;20036;-66
2023/12/25 04:15:33;;;;;;;4.93;2.80;;;;;;;-146.58;100.00;69501.63;5037261;28;20063;-66
2023/12/25 04:17:58;;;;;;;5.10;2.30;;;;;;;-146.58;100.00;69501.63;5052341;28;20025;-66
2023/12/25 04:20:23;;;;;;;15.77;4.65;;;;;;;-146.58;100.00;69501.63;5050928;28;20048;-66
2023/12/25 04:22:49;;;;;;;9.27;4.25;;;;;;;-146.58;100.00;69501.63;5052728;28;20024;-66
2023/12/25 04:25:14;;;;;;;7.32;3.95;;;;;;;-146.58;100.00;69501.63;5050444;28;20476;-66
2023/12/25 04:27:40;;;;;;;7.57;4.05;;;;;;;-146.58;100.00;69501.63;5052384;28;20451;-67
2023/12/25 04:30:06;;;;;;;9.70;3.90;;;;;;;-146.58;100.00;69501.63;5050505;28;20099;-67
2023/12/25 04:32:31;;;;;;;13.63;4.55;;;;;;;-146.58;100.00;69501.63;5032352;28;20444;-67
2023/12/25 04:34:57;;;;;;;19.27;7.43;;;;;;;-146.58;100.00;69501.63;5030994;28;20504;-67
2023/12/25 04:37:22;;;;;;;12.85;4.25;;;;;;;-146.58;100.00;69501.63;5032145;28;20045;-66
2023/12/25 04:39:48;;;;;;;12.25;4.32;;;;;;;-146.58;100.00;69501.63;5030681;28;20056;-66
2023/12/25 04:42:13;;;;;;;11.23;4.60;;;;;;;-146.58;100.00;69501.63;5032197;28;20640;-66
2023/12/25 04:44:38;;;;;;;24.13;6.95;;;;;;;-146.58;100.00;69501.63;5030719;28;20046;-66
2023/12/25 04:47:04;;;;;;;8.98;4.47;;;;;;;-146.58;100.00;69501.63;5031748;28;20025;-65
2023/12/25 04:49:29;;;;;;;13.75;4.97;;;;;;;-146.58;100.00;69501.63;5031266;28;20068;-65
2023/12/25 04:51:55;;;;;;;15.07;5.68;;;;;;;-146.58;100.00;69501.63;5052191;28;20106;-65
2023/12/25 04:54:20;;;;;;;18.45;5.78;;;;;;;-146.58;100.00;69501.63;5049983;28;20044;-65
2023/12/25 04:56:46;;;;;;;12.18;3.30;;;;;;;-146.58;100.00;69501.63;5052403;28;20028;-65
2023/12/25 04:59:11;;;;;;;20.48;4.35;;;;;;;-146.58;100.00;69501.63;5050451;28;20032;-64
2023/12/25 05:01:37;;;;;;;15.63;3.90;;;;;;;-146.58;100.00;69501.63;5035833;28;20028;-64
2023/12/25 05:04:02;;;;;;;11.80;5.15;;;;;;;-146.58;100.00;69501.63;5030679;28;20044;-64
2023/12/25 05:06:28;;;;;;;6.95;2.83;;;;;;;-146.58;100.00;69501.63;5031768;28;20063;-65
2023/12/25 05:08:53;;;;;;;15.05;4.43;;;;;;;-146.58;100.00;69501.63;5030156;28;20033;-65
2023/12/25 05:11:19;;;;;;;13.82;4.75;;;;;;;-146.58;100.00;69501.63;5031704;28;20397;-66
2023/12/25 05:13:44;;;;;;;11.88;5.78;;;;;;;-146.58;100.00;69501.63;5029963;28;20033;-65
2023/12/25 05:16:10;;;;;;;12.57;3.58;;;;;;;-146.58;100.00;69501.63;5031029;28;20076;-64
2023/12/25 05:18:35;;;;;;;11.93;4.80;;;;;;;-146.58;100.00;69501.63;5031234;28;20029;-64
2023/12/25 05:21:01;;;;;;;12.63;3.70;;;;;;;-146.58;100.00;69501.63;5028582;28;20061;-64
2023/12/25 05:23:26;;;;;;;11.93;4.63;;;;;;;-146.58;100.00;69501.63;5027567;28;20025;-64
2023/12/25 05:25:52;;;;;;;9.40;4.18;;;;;;;-146.58;100.00;69501.63;5029625;28;20041;-64
2023/12/25 05:28:17;;;;;;;14.88;5.03;;;;;;;-146.58;100.00;69501.63;5031401;28;20430;-64
2023/12/25 05:30:43;;;;;;;12.80;4.22;;;;;;;-146.58;100.00;69501.63;5034259;28;20075;-64
2023/12/25 05:33:08;;;;;;;9.55;3.45;;;;;;;-146.58;100.00;69501.63;5051232;28;20032;-64
2023/12/25 05:35:34;;;;;;;6.10;2.95;;;;;;;-146.58;100.00;69501.63;5034826;28;20045;-64
2023/12/25 05:38:00;;;;;;;23.15;7.50;;;;;;;-146.58;100.00;69501.63;5029805;28;20149;-65
2023/12/25 05:40:25;;;;;;;14.00;4.75;;;;;;;-146.58;100.00;69501.63;5029112;28;20045;-65
2023/12/25 05:42:50;;;;;;;5.65;3.20;;;;;;;-146.58;100.00;69501.63;5030244;28;20037;-65
2023/12/25 05:45:17;;;;;;;15.18;4.15;;;;;;;-146.58;100.00;69501.63;5027306;28;20041;-66
2023/12/25 05:47:42;;;;;;;15.40;4.88;;;;;;;-146.58;100.00;69501.63;5035104;28;20491;-65
2023/12/25 05:50:08;;;;;;;13.57;4.03;;;;;;;-146.58;100.00;69501.63;5029066;28;20041;-64
2023/12/25 05:52:34;;;;;;;14.75;5.63;;;;;;;-146.58;100.00;69501.63;5028946;28;20380;-64
2023/12/25 05:55:00;;;;;;;12.00;4.80;;;;;;;-146.58;100.00;69501.63;5029233;28;20041;-64
2023/12/25 05:57:26;;;;;;;11.30;4.22;;;;;;;-146.58;100.00;69501.63;5029834;28;20056;-65
2023/12/25 05:59:51;;;;;;;11.48;4.60;;;;;;;-146.58;100.00;69501.63;5027864;28;20032;-64
2023/12/25 06:02:17;;;;;;;19.70;6.13;;;;;;;-146.58;100.00;69501.63;5029823;28;20029;-64
2023/12/25 06:04:42;;;;;;;7.43;2.45;;;;;;;-146.58;100.00;69501.63;5028933;28;20121;-64
2023/12/25 06:07:09;;;;;;;14.88;3.72;;;;;;;-146.58;100.00;69501.63;5029354;28;20025;-65
2023/12/25 06:09:35;;;;;;;13.32;3.75;;;;;;;-146.58;100.00;69501.63;5028725;28;20038;-65
2023/12/25 06:12:00;;;;;;;12.38;3.58;;;;;;;-146.58;100.00;69501.63;5030761;28;20040;-63
2023/12/25 06:14:26;;;;;;;15.20;4.22;;;;;;;-146.58;100.00;69501.63;5027552;28;20488;-64
2023/12/25 06:16:51;;;;;;;15.43;4.10;;;;;;;-146.58;100.00;69501.63;5045049;28;20115;-64
2023/12/25 06:19:17;;;;;;;21.50;5.10;;;;;;;-146.58;100.00;69501.63;5030732;28;20034;-64
2023/12/25 06:21:42;;;;;;;11.38;4.03;;;;;;;-146.58;100.00;69501.63;5032934;28;20033;-64
2023/12/25 06:24:08;;;;;;;15.40;3.58;;;;;;;-146.58;100.00;69501.63;5032469;28;20103;-64
2023/12/25 06:26:33;;;;;;;15.48;4.82;;;;;;;-146.58;100.00;69501.63;5033467;28;20503;-64
2023/12/25 06:28:59;;;;;;;12.52;3.92;;;;;;;-146.58;100.00;69501.63;5032861;28;20032;-64
2023/12/25 06:31:24;;;;;;;13.52;3.92;;;;;;;-146.58;100.00;69501.63;5038135;28;20468;-64
2023/12/25 06:33:49;;;;;;;14.35;4.32;;;;;;;-146.58;100.00;69501.63;5051649;28;20032;-63
2023/12/25 06:36:15;;;;;;;14.95;4.60;;;;;;;-146.58;100.00;69501.63;5044390;28;20025;-64
2023/12/25 06:38:40;;;;;;;18.02;5.20;;;;;;;-146.58;100.00;69501.63;5032532;28;20053;-64
2023/12/25 06:41:05;;;;;;;11.77;4.47;;;;;;;-146.58;100.00;69501.63;5031902;28;20448;-65
2023/12/25 06:43:31;;;;;;;12.75;3.28;;;;;;;-146.58;100.00;69501.63;5033633;28;20029;-65
2023/12/25 06:45:56;;;;;;;6.85;3.42;;;;;;;-146.58;100.00;69501.63;5036773;28;20040;-65
2023/12/25 06:48:21;;;;;;;16.60;7.20;;;;;;;-146.58;100.00;69501.63;5041877;28;20030;-65
2023/12/25 06:50:48;;;;;;;19.25;4.80;;;;;;;-146.58;100.00;69501.63;5032121;28;20041;-65
2023/12/25 06:53:13;;;;;;;11.50;5.50;;;;;;;-146.58;100.00;69501.63;5032141;28;20029;-63
2023/12/25 06:55:39;;;;;;;22.95;4.57;;;;;;;-146.58;100.00;69501.63;5031981;28;20056;-63
2023/12/25 06:58:04;;;;;;;8.40;2.70;;;;;;;-146.58;100.00;69501.63;5033311;28;20392;-63
2023/12/25 07:00:29;;;;;;;10.63;2.97;;;;;;;-146.58;100.00;69501.63;5030484;28;20061;-64
2023/12/25 07:02:55;;;;;;;14.15;3.88;;;;;;;-146.58;100.00;69501.63;5047543;28;20028;-64
2023/12/25 07:05:22;;;;;;;14.45;3.75;;;;;;;-146.58;100.00;69501.63;5049629;28;20053;-64
2023/12/25 07:07:48;;;;;;;11.45;4.90;;;;;;;-146.58;100.00;69501.63;5032443;28;20052;-64
2023/12/25 07:10:13;;;;;;;6.90;3.72;;;;;;;-146.58;100.00;69501.63;5031521;28;20041;-64
2023/12/25 07:12:38;;;;;;;6.68;3.65;;;;;;;-146.58;100.00;69501.63;5033374;28;20390;-64
2023/12/25 07:15:04;;;;;;;9.25;3.65;;;;;;;-146.58;100.00;69501.63;5029970;28;20103;-65
2023/12/25 07:17:31;;;;;;;8.10;2.97;;;;;;;-146.58;100.00;69501.63;5035515;28;20096;-65
2023/12/25 07:19:56;;;;;;;8.02;2.70;;;;;;;-146.58;100.00;69501.63;5031963;28;20168;-65
2023/12/25 07:22:22;;;;;;;5.57;3.08;;;;;;;-146.58;100.00;69501.63;5031378;28;20435;-64
2023/12/25 07:24:47;;;;;;;10.68;2.63;;;;;;;-146.58;100.00;69501.63;5031364;28;20056;-65
2023/12/25 07:27:13;;;;;;;18.85;5.22;;;;;;;-146.58;100.00;69501.63;5033131;28;20017;-65
2023/12/25 07:29:38;;;;;;;6.78;3.65;;;;;;;-146.58;100.00;69501.63;5032669;28;20386;-65
2023/12/25 07:32:04;;;;;;;9.10;5.18;;;;;;;-146.58;100.00;69501.63;5037420;28;20025;-65
2023/12/25 07:34:29;;;;;;;13.80;4.63;;;;;;;-146.58;100.00;69501.63;5031008;28;20068;-65
2023/12/25 07:36:54;;;;;;;6.88;2.65;;;;;;;-146.58;100.00;69501.63;5031458;28;20053;-64
2023/12/25 07:39:20;;;;;;;11.98;3.38;;;;;;;-146.58;100.00;69501.63;5031128;28;20041;-64
2023/12/25 07:41:46;;;;;;;10.32;4.40;;;;;;;-146.58;100.00;69501.63;5032788;28;20029;-64
2023/12/25 07:44:15;;;;;;;12.38;4.20;;;;;;;-146.58;100.00;69501.63;5030030;28;20048;-65
2023/12/25 07:46:41;;;;;;;11.93;5.07;;;;;;;-146.58;100.00;69501.63;5032964;28;20436;-65
2023/12/25 07:49:07;;;;;;;11.07;4.15;;;;;;;-146.58;100.00;69501.63;5030352;28;20037;-65
2023/12/25 07:51:32;;;;;;;19.88;4.47;;;;;;;-146.58;100.00;69501.63;5031319;28;20465;-65
2023/12/25 07:53:58;;;;;;;16.67;4.72;;;;;;;-146.58;100.00;69501.63;5035542;28;20067;-65
2023/12/25 07:56:23;;;;;;;15.88;4.38;;;;;;;-146.58;100.00;69501.63;5052239;28;20033;-65
2023/12/25 07:58:48;;;;;;;10.48;4.00;;;;;;;-146.58;100.00;69501.63;5037499;28;20026;-65
2023/12/25 08:01:14;;;;;;;9.50;3.72;;;;;;;-146.58;100.00;69501.63;5032534;28;20029;-65
2023/12/25 08:03:39;;;;;;;16.17;5.28;;;;;;;-146.58;100.00;69501.63;5032530;28;20036;-65
2023/12/25 08:06:05;;;;;;;11.77;3.75;;;;;;;-146.58;100.00;69501.63;5029781;28;20592;-65
2023/12/25 08:08:31;;;;;;;12.15;4.18;;;;;;;-146.58;100.00;69501.63;5033305;28;20485;-65
2023/12/25 08:10:56;;;;;;;12.30;3.65;;;;;;;-146.58;100.00;69501.63;5031020;28;20047;-65
2023/12/25 08:13:22;;;;;;;16.58;4.68;;;;;;;-146.58;100.00;69501.63;5030773;28;20384;-65
2023/12/25 08:15:47;;;;;;;17.20;4.93;;;;;;;-146.58;100.00;69501.63;5031099;28;20037;-65
2023/12/25 08:18:12;;;;;;;10.25;4.45;;;;;;;-146.58;100.00;69501.63;5031983;28;20064;-65
2023/12/25 08:20:38;;;;;;;11.77;4.18;;;;;;;-146.58;100.00;69501.63;5012828;28;20524;-64
2023/12/25 08:23:03;;;;;;;13.98;5.40;;;;;;;-146.58;100.00;69501.63;5011826;28;20068;-64
2023/12/25 08:25:28;;;;;;;15.57;4.47;;;;;;;-146.58;100.00;69501.63;5024812;28;20044;-64
2023/12/25 08:27:54;;;;;;;13.95;5.30;;;;;;;-146.58;100.00;69501.63;5030748;28;20036;-64
2023/12/25 08:30:20;;;;;;;16.02;3.70;;;;;;;-146.58;100.00;69501.63;5030101;28;20471;-65
2023/12/25 08:32:45;;;;;;;13.63;7.07;;;;;;;-146.58;100.00;69501.63;5032486;28;20025;-64
2023/12/25 08:35:11;;;;;;;16.30;4.68;;;;;;;-146.58;100.00;69501.63;5030167;28;20099;-63
2023/12/25 08:37:36;;;;;;;10.68;2.97;;;;;;;-146.58;100.00;69501.63;5031777;28;20497;-63
2023/12/25 08:40:03;;;;;;;9.65;4.30;;;;;;;-146.58;100.00;69501.63;5046240;28;20044;-63
2023/12/25 08:42:29;;;;;;;17.20;4.97;;;;;;;-146.58;100.00;69501.63;5030875;28;20064;-63
2023/12/25 08:44:54;;;;;;;5.55;2.92;;;;;;;-146.58;100.00;69501.63;5029899;28;20037;-63
2023/12/25 08:47:19;;;;;;;6.22;2.97;;;;;;;-146.58;100.00;69501.63;5032292;28;20029;-63
2023/12/25 08:49:45;;;;;;;4.30;2.78;;;;;;;-146.58;100.00;69501.63;5030533;28;20187;-63
2023/12/25 08:52:10;;;;;;;9.52;3.15;;;;;;;-146.58;100.00;69501.63;5038633;28;20088;-63
2023/12/25 08:54:36;;;;;;;7.50;3.55;;;;;;;-146.58;100.00;69501.63;5050125;28;20500;-63
2023/12/25 08:57:02;;;;;;;7.55;3.83;;;;;;;-146.58;100.00;69501.63;5052102;28;20384;-63
2023/12/25 08:59:27;;;;;;;10.18;3.85;;;;;;;-146.58;100.00;69501.63;5049325;28;20040;-63
2023/12/25 09:01:52;;;;;;;5.55;3.30;;;;;;;-146.58;100.00;69501.63;5042986;28;20029;-63
2023/12/25 09:04:18;;;;;;;4.63;2.35;;;;;;;-146.58;100.00;69501.63;5057164;28;20038;-63
2023/12/25 09:06:43;;;;;;;14.32;3.85;;;;;;;-146.58;100.00;69501.63;5011196;28;20052;-63
2023/12/25 09:09:10;;;;;;;6.05;2.97;;;;;;;-146.58;100.00;69501.63;5010580;28;20067;-63
2023/12/25 09:11:36;;;;;;;11.68;3.78;;;;;;;-146.58;100.00;69501.63;5030407;28;20060;-63
2023/12/25 09:14:02;;;;;;;12.93;2.60;;;;;;;-146.58;100.00;69501.63;5029759;28;20389;-63
2023/12/25 09:16:28;;;;;;;8.18;4.10;;;;;;;-146.58;100.00;69501.63;5031112;28;20028;-63
2023/12/25 09:18:54;;;;;;;13.15;2.63;;;;;;;-146.58;100.00;69501.63;5030192;28;20030;-63
2023/12/25 09:21:20;;;;;;;11.57;2.88;;;;;;;-146.58;100.00;69501.63;5030478;28;20041;-63
2023/12/25 09:23:46;;;;;;;7.32;4.07;;;;;;;-146.58;100.00;69501.63;4990674;28;20482;-64
2023/12/25 09:26:17;;;;;;;12.65;4.60;;;;;;;-146.58;100.00;69501.63;4992221;28;20026;-63
2023/12/25 09:28:43;;;;;;;8.02;2.55;;;;;;;-146.58;100.00;69501.63;4990192;28;20018;-61
2023/12/25 09:31:08;;;;;;;4.68;2.78;;;;;;;-146.58;100.00;69501.63;5004213;28;20495;-63
2023/12/25 09:33:33;;;;;;;16.83;3.58;;;;;;;-146.58;100.00;69501.63;5030825;28;20029;-63
2023/12/25 09:35:59;;;;;;;10.15;4.15;;;;;;;-146.58;100.00;69501.63;5029320;28;20041;-63
2023/12/25 09:38:24;;;;;;;14.20;3.72;;;;;;;-146.58;100.00;69501.63;5030749;28;20519;-63
2023/12/25 09:40:50;;;;;;;10.40;4.28;;;;;;;-146.58;100.00;69501.63;5029317;28;20041;-63
2023/12/25 09:43:15;;;;;;;6.03;3.42;;;;;;;-146.58;100.00;69501.63;5030874;28;20021;-63
2023/12/25 09:45:42;;;;;;;7.43;3.63;;;;;;;-146.58;100.00;69501.63;5027628;28;20041;-63
2023/12/25 09:48:08;;;;;;;7.95;2.55;;;;;;;-146.58;100.00;69501.63;5030807;28;20032;-63
2023/12/25 09:50:35;;;;;;;5.82;3.40;;;;;;;-146.58;100.00;69501.63;5028776;28;20430;-63
2023/12/25 09:53:00;;;;;;;9.88;2.30;;;;;;;-146.58;100.00;69501.63;5017195;28;20040;-63
2023/12/25 09:55:26;;;;;;;5.50;3.33;;;;;;;-146.58;100.00;69501.63;5008022;28;20038;-63
2023/12/25 09:57:52;;;;;;;10.30;3.08;;;;;;;-146.58;100.00;69501.63;5010098;28;20026;-63
2023/12/25 10:00:19;;;;;;;8.93;3.00;;;;;;;-146.58;100.00;69501.63;5010217;28;20391;-63
2023/12/25 10:02:49;;;;;;;9.85;3.22;;;;;;;-146.58;100.00;69501.63;5010374;28;20029;-63
2023/12/25 10:05:15;;;;;;;6.25;4.25;;;;;;;-146.58;100.00;69501.63;5008967;28;20050;-63
2023/12/25 10:07:41;;;;;;;4.47;2.67;;;;;;;-146.58;100.00;69501.63;5010530;28;20030;-64
2023/12/25 10:10:08;;;;;;;10.55;2.75;;;;;;;-146.58;100.00;69501.63;5008336;28;20453;-63
2023/12/25 10:12:34;;;;;;;7.35;2.65;;;;;;;-146.58;100.00;69501.63;5008667;28;20112;-67
2023/12/25 10:14:59;;;;;;;9.10;3.20;;;;;;;-146.58;100.00;69501.63;5008839;28;20042;-63
2023/12/25 10:17:24;;;;;;;6.50;3.70;;;;;;;-146.58;100.00;69501.63;5009070;28;20092;-63
2023/12/25 10:19:52;;;;;;;16.38;4.75;;;;;;;-146.58;100.00;69501.63;5007865;28;20504;-63
2023/12/25 10:22:32;;;;;;;17.30;6.72;;;;;;;-146.58;100.00;69501.63;5010470;28;20026;-63
2023/12/25 10:25:09;;;;;;;5.65;2.28;;;;;;;-146.58;100.00;69501.63;5009020;28;20139;-63
2023/12/25 10:27:40;;;;;;;5.45;3.25;;;;;;;-146.58;100.00;69501.63;5008440;28;20476;-62
2023/12/25 10:30:21;;;;;;;6.57;3.30;;;;;;;-146.58;100.00;69501.63;5007120;28;20052;-63
2023/12/25 10:32:47;;;;;;;5.18;2.63;;;;;;;-146.58;100.00;69501.63;4999336;28;20053;-62
2023/12/25 10:35:15;;;;;;;5.15;3.45;;;;;;;-146.58;100.00;69501.63;5008856;28;20042;-62
2023/12/25 10:37:41;;;;;;;9.50;2.92;;;;;;;-146.58;100.00;69501.63;5009994;28;20058;-61
2023/12/25 10:40:25;;;;;;;11.50;4.68;;;;;;;-146.58;100.00;69501.63;5008281;28;20042;-66
2023/12/25 10:42:52;;;;;;;6.63;2.28;;;;;;;-146.58;100.00;69501.63;5010186;28;20493;-62
2023/12/25 10:45:21;;;;;;;6.78;3.00;;;;;;;-146.58;100.00;69501.63;5010460;28;20529;-62
2023/12/25 10:47:50;;;;;;;8.05;3.45;;;;;;;-146.58;100.00;69501.63;5024633;28;20037;-60
2023/12/25 10:50:20;;;;;;;7.20;3.78;;;;;;;-146.58;100.00;69501.63;5007841;28;20056;-61
2023/12/25 10:52:48;;;;;;;12.27;2.60;;;;;;;-146.58;100.00;69501.63;5010868;28;20045;-61
2023/12/25 10:55:36;;;;;;;5.00;2.40;;;;;;;-146.58;100.00;69501.63;5008841;28;20038;-61
2023/12/25 10:58:03;;;;;;;5.43;2.80;;;;;;;-146.58;100.00;69501.63;5008250;28;20650;-61